Time;durP1;ratioP1;P1;durP2;ratioP2;P2;SDS_P1;SDS_P2;PMS_P1;PMS_P2;Temp;Humidity;BMP_temperature;BMP_pressure;BME280_temperature;BME280_humidity;BME280_pressure;Samples;Min_cycle;Max_cycle;Signal;HPM_P1;HPM_P2
2024/04/13 00:01:13;;;;;;;3.13;0.98;;;;;;;;;;5382400;26;20031;-65
2024/04/13 00:03:41;;;;;;;1.00;0.60;;;;;;;;;;5377752;26;20019;-65
2024/04/13 00:06:07;;;;;;;2.25;0.70;;;;;;;;;;5382671;26;20011;-65
2024/04/13 00:08:33;;;;;;;2.33;0.98;;;;;;;;;;5381412;26;20324;-65
2024/04/13 00:10:58;;;;;;;2.03;0.73;;;;;;;;;;5383278;26;20011;-64
2024/04/13 00:13:23;;;;;;;1.92;0.60;;;;;;;;;;5382643;26;20740;-65
2024/04/13 00:15:55;;;;;;;1.75;0.60;;;;;;;;;;5383342;26;20000;-64
2024/04/13 00:18:21;;;;;;;0.90;0.70;;;;;;;;;;5383355;26;20012;-69
2024/04/13 00:20:46;;;;;;;2.20;0.60;;;;;;;;;;5378119;26;20040;-66
2024/04/13 00:23:11;;;;;;;2.03;1.10;;;;;;;;;;5373315;26;20318;-65
2024/04/13 00:25:37;;;;;;;2.67;0.82;;;;;;;;;;5381828;26;20011;-65
2024/04/13 00:28:02;;;;;;;1.60;0.60;;;;;;;;;;5384143;26;20006;-66
2024/04/13 00:30:28;;;;;;;2.10;0.70;;;;;;;;;;5382456;26;19996;-65
2024/04/13 00:32:54;;;;;;;2.55;0.77;;;;;;;;;;5380852;26;20015;-66
2024/04/13 00:35:21;;;;;;;1.52;0.73;;;;;;;;;;5383968;26;20007;-65
2024/04/13 00:37:46;;;;;;;2.45;0.63;;;;;;;;;;5380863;26;20412;-64
2024/04/13 00:40:12;;;;;;;1.17;0.80;;;;;;;;;;5349223;26;20019;-64
2024/04/13 00:42:37;;;;;;;3.00;0.88;;;;;;;;;;5345749;26;20028;-65
2024/04/13 00:45:03;;;;;;;1.17;0.55;;;;;;;;;;5348718;26;20011;-65
2024/04/13 00:47:34;;;;;;;3.88;0.60;;;;;;;;;;5351153;26;21985;-64
2024/04/13 00:50:02;;;;;;;2.17;0.70;;;;;;;;;;5345814;26;20004;-65
2024/04/13 00:52:29;;;;;;;2.88;0.90;;;;;;;;;;5347361;26;20011;-66
2024/04/13 00:54:55;;;;;;;1.35;0.60;;;;;;;;;;5349929;26;20005;-66
2024/04/13 00:57:21;;;;;;;2.72;0.60;;;;;;;;;;5348374;26;20416;-65
2024/04/13 00:59:50;;;;;;;1.85;0.50;;;;;;;;;;5347024;26;20067;-65
2024/04/13 01:02:18;;;;;;;2.70;0.70;;;;;;;;;;5346757;26;20067;-66
2024/04/13 01:04:48;;;;;;;3.15;0.80;;;;;;;;;;5347892;26;20408;-66
2024/04/13 01:07:16;;;;;;;2.38;0.60;;;;;;;;;;5348513;26;19997;-65
2024/04/13 01:09:45;;;;;;;1.33;0.60;;;;;;;;;;5364183;26;20004;-69
2024/04/13 01:12:11;;;;;;;1.73;0.70;;;;;;;;;;5379494;26;20008;-66
2024/04/13 01:14:36;;;;;;;2.60;0.80;;;;;;;;;;5383364;26;20015;-66
2024/04/13 01:17:02;;;;;;;1.25;0.70;;;;;;;;;;5382668;26;20086;-66
2024/04/13 01:19:27;;;;;;;2.08;0.52;;;;;;;;;;5381514;26;20841;-65
2024/04/13 01:21:52;;;;;;;1.05;0.70;;;;;;;;;;5379612;26;20402;-65
2024/04/13 01:24:18;;;;;;;1.88;0.60;;;;;;;;;;5379964;26;20094;-65
2024/04/13 01:26:43;;;;;;;1.27;0.52;;;;;;;;;;5322206;26;20001;-66
2024/04/13 01:29:09;;;;;;;1.40;0.60;;;;;;;;;;5382177;26;20012;-69
2024/04/13 01:31:35;;;;;;;1.25;0.80;;;;;;;;;;5381470;26;19996;-66
2024/04/13 01:34:02;;;;;;;3.80;0.80;;;;;;;;;;5382456;26;19996;-64
2024/04/13 01:36:35;;;;;;;2.95;0.75;;;;;;;;;;5378555;26;20070;-64
2024/04/13 01:39:01;;;;;;;1.92;0.75;;;;;;;;;;5381889;26;20000;-65
2024/04/13 01:41:26;;;;;;;2.38;0.70;;;;;;;;;;5380432;26;20404;-65
2024/04/13 01:43:51;;;;;;;1.33;0.68;;;;;;;;;;5381487;26;20015;-64
2024/04/13 01:46:17;;;;;;;1.60;0.70;;;;;;;;;;5381352;26;20004;-65
2024/04/13 01:48:43;;;;;;;2.67;0.70;;;;;;;;;;5382726;26;20000;-65
2024/04/13 01:51:08;;;;;;;1.38;0.80;;;;;;;;;;5366964;26;20005;-67
2024/04/13 01:53:33;;;;;;;0.77;0.70;;;;;;;;;;5346765;26;20008;-65
2024/04/13 01:55:59;;;;;;;1.75;0.85;;;;;;;;;;5347426;26;20004;-65
2024/04/13 01:58:25;;;;;;;1.95;1.00;;;;;;;;;;5348318;26;20013;-65
2024/04/13 02:00:50;;;;;;;2.60;0.90;;;;;;;;;;5315791;26;20005;-64
2024/04/13 02:03:16;;;;;;;1.42;0.60;;;;;;;;;;5316722;26;20076;-65
2024/04/13 02:05:41;;;;;;;1.25;0.52;;;;;;;;;;5347289;26;20005;-67
2024/04/13 02:08:07;;;;;;;2.35;0.80;;;;;;;;;;5345092;26;20005;-66
2024/04/13 02:10:32;;;;;;;1.55;0.80;;;;;;;;;;5345744;26;20012;-65
2024/04/13 02:12:58;;;;;;;1.90;0.85;;;;;;;;;;5347373;26;20012;-67
2024/04/13 02:15:24;;;;;;;2.65;0.80;;;;;;;;;;5371371;26;20342;-65
2024/04/13 02:17:50;;;;;;;1.58;0.82;;;;;;;;;;5380403;26;20012;-65
2024/04/13 02:20:16;;;;;;;2.00;0.98;;;;;;;;;;5381823;26;20295;-65
2024/04/13 02:22:42;;;;;;;2.47;1.08;;;;;;;;;;5382217;26;19997;-69
2024/04/13 02:25:14;;;;;;;2.72;0.95;;;;;;;;;;5378803;26;20010;-66
2024/04/13 02:27:39;;;;;;;1.08;0.65;;;;;;;;;;5381042;26;20040;-65
2024/04/13 02:30:05;;;;;;;3.13;0.80;;;;;;;;;;5377399;26;20000;-67
2024/04/13 02:32:30;;;;;;;2.58;0.95;;;;;;;;;;5380361;26;19996;-66
2024/04/13 02:34:56;;;;;;;4.65;0.82;;;;;;;;;;5381391;26;20070;-65
2024/04/13 02:37:22;;;;;;;1.50;0.70;;;;;;;;;;5380408;26;19996;-66
2024/04/13 02:39:48;;;;;;;1.85;0.60;;;;;;;;;;5381688;26;20027;-65
2024/04/13 02:42:13;;;;;;;1.42;0.70;;;;;;;;;;5382270;26;20004;-68
2024/04/13 02:44:39;;;;;;;1.50;0.93;;;;;;;;;;5378615;26;20040;-65
2024/04/13 02:47:05;;;;;;;2.85;0.90;;;;;;;;;;5378712;26;20004;-64
2024/04/13 02:49:30;;;;;;;1.95;0.80;;;;;;;;;;5378232;26;20406;-65
2024/04/13 02:51:55;;;;;;;1.77;0.60;;;;;;;;;;5381568;26;20007;-65
2024/04/13 02:54:21;;;;;;;1.95;1.02;;;;;;;;;;5381132;26;19996;-66
2024/04/13 02:56:46;;;;;;;2.80;0.82;;;;;;;;;;5349282;26;20000;-65
2024/04/13 02:59:11;;;;;;;2.72;0.68;;;;;;;;;;5381392;26;20011;-65
2024/04/13 03:01:37;;;;;;;1.88;0.70;;;;;;;;;;5381560;26;20015;-65
2024/04/13 03:04:03;;;;;;;1.27;0.63;;;;;;;;;;5378154;26;20008;-65
2024/04/13 03:06:28;;;;;;;3.47;0.68;;;;;;;;;;5380173;26;20092;-66
2024/04/13 03:08:54;;;;;;;2.03;0.68;;;;;;;;;;5380410;26;20012;-66
2024/04/13 03:11:21;;;;;;;1.27;0.80;;;;;;;;;;5360105;26;20001;-65
2024/04/13 03:13:48;;;;;;;1.60;1.00;;;;;;;;;;5345492;26;20426;-65
2024/04/13 03:16:13;;;;;;;3.80;1.77;;;;;;;;;;5345579;26;20001;-66
2024/04/13 03:18:39;;;;;;;1.50;1.08;;;;;;;;;;5345520;26;20008;-66
2024/04/13 03:21:05;;;;;;;2.70;1.02;;;;;;;;;;5344900;26;19993;-65
2024/04/13 03:23:31;;;;;;;1.50;0.93;;;;;;;;;;5344129;26;20000;-65
2024/04/13 03:25:57;;;;;;;1.15;0.80;;;;;;;;;;5347054;26;20131;-65
2024/04/13 03:28:30;;;;;;;3.00;1.30;;;;;;;;;;5343408;26;20071;-66
2024/04/13 03:30:55;;;;;;;5.65;1.08;;;;;;;;;;5345487;26;20025;-66
2024/04/13 03:33:21;;;;;;;4.93;0.85;;;;;;;;;;5343137;26;20013;-66
2024/04/13 03:35:47;;;;;;;1.58;0.85;;;;;;;;;;5317072;26;20004;-66
2024/04/13 03:38:13;;;;;;;2.38;1.20;;;;;;;;;;5345872;26;20001;-63
2024/04/13 03:40:38;;;;;;;2.28;0.90;;;;;;;;;;5344812;26;20268;-65
2024/04/13 03:43:04;;;;;;;0.75;0.60;;;;;;;;;;5345619;26;20001;-65
2024/04/13 03:45:29;;;;;;;2.22;0.80;;;;;;;;;;5345437;26;20001;-67
2024/04/13 03:47:55;;;;;;;7.78;1.23;;;;;;;;;;5344316;26;20008;-68
2024/04/13 03:50:20;;;;;;;3.25;0.93;;;;;;;;;;5347629;26;20015;-65
2024/04/13 03:52:46;;;;;;;5.97;0.90;;;;;;;;;;5345571;26;20009;-66
2024/04/13 03:55:11;;;;;;;2.63;0.90;;;;;;;;;;5344849;26;20012;-64
2024/04/13 03:57:36;;;;;;;2.33;0.80;;;;;;;;;;5344657;26;20061;-65
2024/04/13 04:00:02;;;;;;;1.95;0.90;;;;;;;;;;5345828;26;20012;-65
2024/04/13 04:02:30;;;;;;;3.42;1.00;;;;;;;;;;5346239;26;20011;-65
2024/04/13 04:04:55;;;;;;;2.88;0.88;;;;;;;;;;5342918;26;19997;-64
2024/04/13 04:07:21;;;;;;;2.38;0.90;;;;;;;;;;5345236;26;20067;-65
2024/04/13 04:09:47;;;;;;;2.83;1.20;;;;;;;;;;5345662;26;20000;-65
2024/04/13 04:12:12;;;;;;;5.60;1.60;;;;;;;;;;5344419;26;20013;-66
2024/04/13 04:14:37;;;;;;;2.95;2.13;;;;;;;;;;5344214;26;20007;-65
2024/04/13 04:17:03;;;;;;;3.53;3.15;;;;;;;;;;5346148;26;20099;-65
2024/04/13 04:19:28;;;;;;;3.30;2.80;;;;;;;;;;5344552;26;20355;-65
2024/04/13 04:21:54;;;;;;;5.88;4.63;;;;;;;;;;5342700;26;20012;-66
2024/04/13 04:24:22;;;;;;;2.78;2.58;;;;;;;;;;5343992;26;20075;-66
2024/04/13 04:26:48;;;;;;;9.50;9.00;;;;;;;;;;5345897;26;20008;-66
2024/04/13 04:29:14;;;;;;;10.73;10.07;;;;;;;;;;5345197;26;20013;-67
2024/04/13 04:31:41;;;;;;;12.20;11.48;;;;;;;;;;5342745;26;20004;-66
2024/04/13 04:34:07;;;;;;;4.43;4.13;;;;;;;;;;5345517;26;20012;-66
2024/04/13 04:36:32;;;;;;;2.25;1.90;;;;;;;;;;5348825;26;20004;-65
2024/04/13 04:38:58;;;;;;;8.10;3.45;;;;;;;;;;5348466;26;20001;-66
2024/04/13 04:41:23;;;;;;;12.20;6.55;;;;;;;;;;5316658;26;20012;-65
2024/04/13 04:43:49;;;;;;;13.57;12.50;;;;;;;;;;5347407;26;20312;-66
2024/04/13 04:46:15;;;;;;;15.60;12.23;;;;;;;;;;5350827;26;20001;-67
2024/04/13 04:48:40;;;;;;;11.50;8.55;;;;;;;;;;5346548;26;20011;-66
2024/04/13 04:51:07;;;;;;;5.47;4.78;;;;;;;;;;5347069;26;20013;-67
2024/04/13 04:53:32;;;;;;;3.63;3.30;;;;;;;;;;5347156;26;20005;-67
2024/04/13 04:55:58;;;;;;;5.25;2.67;;;;;;;;;;5350242;26;20005;-66
2024/04/13 04:58:24;;;;;;;3.25;2.10;;;;;;;;;;5346772;26;20408;-66
2024/04/13 05:00:50;;;;;;;3.47;1.33;;;;;;;;;;5349425;26;20015;-66
2024/04/13 05:03:15;;;;;;;1.73;1.27;;;;;;;;;;5347087;26;20001;-65
2024/04/13 05:05:41;;;;;;;1.88;0.82;;;;;;;;;;5346566;26;20278;-66
2024/04/13 05:08:07;;;;;;;4.18;1.67;;;;;;;;;;5346151;26;20012;-68
2024/04/13 05:10:32;;;;;;;3.83;1.08;;;;;;;;;;5346656;26;20001;-65
2024/04/13 05:12:57;;;;;;;2.88;1.08;;;;;;;;;;5346915;26;19997;-67
2024/04/13 05:15:23;;;;;;;4.22;1.30;;;;;;;;;;5347064;26;20009;-68
2024/04/13 05:17:48;;;;;;;3.38;1.05;;;;;;;;;;5346772;26;20013;-66
2024/04/13 05:20:14;;;;;;;5.80;1.58;;;;;;;;;;5349006;26;20016;-66
2024/04/13 05:22:39;;;;;;;3.22;0.98;;;;;;;;;;5346352;26;20033;-67
2024/04/13 05:25:05;;;;;;;3.17;0.98;;;;;;;;;;5345835;26;20065;-67
2024/04/13 05:27:31;;;;;;;1.23;0.65;;;;;;;;;;5346336;26;19997;-66
2024/04/13 05:30:02;;;;;;;3.67;1.08;;;;;;;;;;5346688;26;20031;-66
2024/04/13 05:32:30;;;;;;;6.40;1.30;;;;;;;;;;5347119;26;19997;-66
2024/04/13 05:34:56;;;;;;;2.57;1.00;;;;;;;;;;5347302;26;20019;-66
2024/04/13 05:37:22;;;;;;;4.65;1.17;;;;;;;;;;5344997;26;20273;-66
2024/04/13 05:39:47;;;;;;;2.85;1.00;;;;;;;;;;5347555;26;20005;-65
2024/04/13 05:42:12;;;;;;;4.32;1.00;;;;;;;;;;5346347;26;20005;-68
2024/04/13 05:44:38;;;;;;;2.97;0.90;;;;;;;;;;5359586;26;20323;-66
2024/04/13 05:47:03;;;;;;;2.47;0.90;;;;;;;;;;5382035;26;20227;-65
2024/04/13 05:49:28;;;;;;;4.22;1.17;;;;;;;;;;5378823;26;20127;-66
2024/04/13 05:51:54;;;;;;;4.40;0.90;;;;;;;;;;5379391;26;20015;-67
2024/04/13 05:54:19;;;;;;;4.28;1.45;;;;;;;;;;5382671;26;20001;-67
2024/04/13 05:56:45;;;;;;;1.65;0.82;;;;;;;;;;5377620;26;20319;-75
2024/04/13 05:59:10;;;;;;;3.72;1.15;;;;;;;;;;5363155;26;20012;-74
2024/04/13 06:01:36;;;;;;;2.35;1.00;;;;;;;;;;5377274;26;20012;-73
2024/04/13 06:04:01;;;;;;;2.53;1.02;;;;;;;;;;5381069;26;20074;-71
2024/04/13 06:06:27;;;;;;;5.13;1.00;;;;;;;;;;5375055;26;20011;-69
2024/04/13 06:08:52;;;;;;;5.05;1.40;;;;;;;;;;5371794;26;20292;-70
2024/04/13 06:11:17;;;;;;;6.95;1.25;;;;;;;;;;5344731;26;20001;-71
2024/04/13 06:13:43;;;;;;;2.60;1.20;;;;;;;;;;5346793;26;20012;-69
2024/04/13 06:16:08;;;;;;;4.57;1.10;;;;;;;;;;5346350;26;20001;-70
2024/04/13 06:18:34;;;;;;;5.85;1.00;;;;;;;;;;5346074;26;20012;-71
2024/04/13 06:21:00;;;;;;;2.55;0.98;;;;;;;;;;5372575;26;20012;-68
2024/04/13 06:23:25;;;;;;;11.38;1.20;;;;;;;;;;5382524;26;20008;-67
2024/04/13 06:25:51;;;;;;;3.15;1.38;;;;;;;;;;5375766;26;20328;-71
2024/04/13 06:28:18;;;;;;;1.27;0.90;;;;;;;;;;5355374;26;20419;-71
2024/04/13 06:30:44;;;;;;;2.67;1.40;;;;;;;;;;5365751;26;20015;-70
2024/04/13 06:33:12;;;;;;;3.13;0.95;;;;;;;;;;5358872;26;20411;-69
2024/04/13 06:35:38;;;;;;;8.55;1.42;;;;;;;;;;5375100;26;20015;-70
2024/04/13 06:38:03;;;;;;;3.03;1.17;;;;;;;;;;5353333;26;20009;-69
2024/04/13 06:40:29;;;;;;;5.07;1.10;;;;;;;;;;5378616;26;20012;-72
2024/04/13 06:42:55;;;;;;;3.15;1.40;;;;;;;;;;5360369;26;20016;-71
2024/04/13 06:45:20;;;;;;;3.10;1.50;;;;;;;;;;5381046;26;20074;-71
2024/04/13 06:47:45;;;;;;;2.38;1.23;;;;;;;;;;5356796;26;20486;-71
2024/04/13 06:50:11;;;;;;;4.57;1.20;;;;;;;;;;5346531;26;20009;-71
2024/04/13 06:52:36;;;;;;;7.60;1.40;;;;;;;;;;5346888;26;20012;-71
2024/04/13 06:55:01;;;;;;;3.27;1.30;;;;;;;;;;5346431;26;20662;-71
2024/04/13 06:57:27;;;;;;;3.75;1.20;;;;;;;;;;5345187;26;20355;-66
2024/04/13 06:59:53;;;;;;;2.17;1.27;;;;;;;;;;5369260;26;20027;-70
2024/04/13 07:02:19;;;;;;;4.28;1.50;;;;;;;;;;5381759;26;20792;-70
2024/04/13 07:04:45;;;;;;;2.40;1.20;;;;;;;;;;5379967;26;20011;-71
2024/04/13 07:07:11;;;;;;;4.43;1.63;;;;;;;;;;5380320;26;20004;-72
2024/04/13 07:09:36;;;;;;;6.35;1.23;;;;;;;;;;5380516;26;20004;-72
2024/04/13 07:12:02;;;;;;;3.42;1.45;;;;;;;;;;5378369;26;20086;-71
2024/04/13 07:14:27;;;;;;;7.53;1.70;;;;;;;;;;5380933;26;20000;-70
2024/04/13 07:16:52;;;;;;;5.03;1.77;;;;;;;;;;5380382;26;20007;-70
2024/04/13 07:19:18;;;;;;;3.90;1.50;;;;;;;;;;5380933;26;21164;-70
2024/04/13 07:21:43;;;;;;;4.67;1.70;;;;;;;;;;5376778;26;20000;-70
2024/04/13 07:24:08;;;;;;;6.03;1.58;;;;;;;;;;5360333;26;20040;-70
2024/04/13 07:26:34;;;;;;;3.15;1.70;;;;;;;;;;5363831;26;20000;-69
2024/04/13 07:29:00;;;;;;;3.25;1.83;;;;;;;;;;5380227;26;20070;-68
2024/04/13 07:31:25;;;;;;;2.83;1.60;;;;;;;;;;5361253;26;20028;-70
2024/04/13 07:33:50;;;;;;;4.20;1.60;;;;;;;;;;5367029;26;20004;-71
2024/04/13 07:36:16;;;;;;;2.57;1.40;;;;;;;;;;5353942;26;20537;-71
2024/04/13 07:38:41;;;;;;;2.23;1.33;;;;;;;;;;5373963;26;20071;-70
2024/04/13 07:41:07;;;;;;;4.10;1.15;;;;;;;;;;5368307;26;20274;-70
2024/04/13 07:43:32;;;;;;;2.63;1.40;;;;;;;;;;5354004;26;20082;-70
2024/04/13 07:45:57;;;;;;;3.23;1.40;;;;;;;;;;5371399;26;20043;-70
2024/04/13 07:48:25;;;;;;;3.00;1.40;;;;;;;;;;5371740;26;20000;-72
2024/04/13 07:50:54;;;;;;;2.60;1.17;;;;;;;;;;5364612;26;20625;-71
2024/04/13 07:53:38;;;;;;;3.33;1.40;;;;;;;;;;5376199;26;20446;-74
2024/04/13 07:56:03;;;;;;;4.87;1.00;;;;;;;;;;5359964;26;20029;-72
2024/04/13 07:58:29;;;;;;;4.22;1.38;;;;;;;;;;5372540;26;20242;-73
2024/04/13 08:00:54;;;;;;;2.53;1.35;;;;;;;;;;5369335;26;20019;-72
2024/04/13 08:03:20;;;;;;;4.57;1.35;;;;;;;;;;5351072;26;20023;-71
2024/04/13 08:05:46;;;;;;;5.00;1.30;;;;;;;;;;5357025;26;20009;-73
2024/04/13 08:08:11;;;;;;;4.53;1.80;;;;;;;;;;5345490;26;20009;-72
2024/04/13 08:10:39;;;;;;;5.33;1.50;;;;;;;;;;5355126;26;20001;-70
2024/04/13 08:13:04;;;;;;;5.95;1.63;;;;;;;;;;5361529;26;20333;-70
2024/04/13 08:15:29;;;;;;;5.63;1.13;;;;;;;;;;5361283;26;20416;-70
2024/04/13 08:17:58;;;;;;;6.05;1.35;;;;;;;;;;5361885;26;20032;-68
2024/04/13 08:20:23;;;;;;;4.38;1.30;;;;;;;;;;5367647;26;20193;-68
2024/04/13 08:22:49;;;;;;;4.82;1.10;;;;;;;;;;5347326;26;20344;-67
2024/04/13 08:25:14;;;;;;;4.57;0.93;;;;;;;;;;5347568;26;20015;-68
2024/04/13 08:27:40;;;;;;;3.47;1.20;;;;;;;;;;5357828;26;20087;-66
2024/04/13 08:30:07;;;;;;;3.35;0.80;;;;;;;;;;5372929;26;20001;-68
2024/04/13 08:32:32;;;;;;;4.63;1.08;;;;;;;;;;5361739;26;20307;-65
2024/04/13 08:34:58;;;;;;;3.00;1.13;;;;;;;;;;5378692;26;19996;-70
2024/04/13 08:37:23;;;;;;;6.43;1.30;;;;;;;;;;5355324;26;20326;-68
2024/04/13 08:39:48;;;;;;;4.20;1.20;;;;;;;;;;5365303;26;20066;-68
2024/04/13 08:42:18;;;;;;;8.40;1.20;;;;;;;;;;5377649;26;20000;-67
2024/04/13 08:44:44;;;;;;;2.47;1.30;;;;;;;;;;5363540;26;20008;-68
2024/04/13 08:47:10;;;;;;;3.53;1.30;;;;;;;;;;5366149;26;20023;-68
2024/04/13 08:49:36;;;;;;;3.30;1.15;;;;;;;;;;5375502;26;20135;-66
2024/04/13 08:52:04;;;;;;;3.17;1.20;;;;;;;;;;5357672;26;20096;-68
2024/04/13 08:54:30;;;;;;;4.53;1.08;;;;;;;;;;5358297;26;20000;-66
2024/04/13 08:56:55;;;;;;;6.35;1.42;;;;;;;;;;5360834;26;20009;-67
2024/04/13 08:59:21;;;;;;;4.00;1.38;;;;;;;;;;5347795;26;20066;-69
2024/04/13 09:01:47;;;;;;;3.67;1.30;;;;;;;;;;5367837;26;20007;-68
2024/04/13 09:04:13;;;;;;;3.90;1.38;;;;;;;;;;5347414;26;20038;-68
2024/04/13 09:06:39;;;;;;;9.05;1.20;;;;;;;;;;5368724;26;20008;-69
2024/04/13 09:09:08;;;;;;;8.43;1.65;;;;;;;;;;5370865;26;20000;-63
2024/04/13 09:11:35;;;;;;;4.57;1.52;;;;;;;;;;5365796;26;20004;-67
2024/04/13 09:14:02;;;;;;;4.03;1.40;;;;;;;;;;5380608;26;20334;-69
2024/04/13 09:16:28;;;;;;;8.57;1.80;;;;;;;;;;5364362;26;20004;-67
2024/04/13 09:18:53;;;;;;;5.22;1.60;;;;;;;;;;5378975;26;20008;-70
2024/04/13 09:21:19;;;;;;;4.38;1.98;;;;;;;;;;5366913;26;20124;-67
2024/04/13 09:23:45;;;;;;;4.22;1.27;;;;;;;;;;5367641;26;20027;-66
2024/04/13 09:26:10;;;;;;;4.22;1.52;;;;;;;;;;5364605;26;20023;-67
2024/04/13 09:28:45;;;;;;;2.33;1.35;;;;;;;;;;5362394;26;20283;-63
2024/04/13 09:31:11;;;;;;;4.93;1.40;;;;;;;;;;5382603;26;20077;-68
2024/04/13 09:33:37;;;;;;;4.25;1.58;;;;;;;;;;5353301;26;20011;-66
2024/04/13 09:36:03;;;;;;;4.88;1.30;;;;;;;;;;5354847;26;20292;-67
2024/04/13 09:38:28;;;;;;;5.05;1.38;;;;;;;;;;5376629;26;20012;-67
2024/04/13 09:40:57;;;;;;;4.10;1.92;;;;;;;;;;5370705;26;20000;-67
2024/04/13 09:43:23;;;;;;;3.63;1.52;;;;;;;;;;5363556;26;20289;-66
2024/04/13 09:45:58;;;;;;;7.03;1.98;;;;;;;;;;5366671;26;20015;-69
2024/04/13 09:48:23;;;;;;;3.22;1.52;;;;;;;;;;5367708;26;19997;-68
2024/04/13 09:50:49;;;;;;;6.13;1.70;;;;;;;;;;5372757;26;20331;-66
2024/04/13 09:53:16;;;;;;;2.50;1.40;;;;;;;;;;5353472;26;20032;-67
2024/04/13 09:55:42;;;;;;;4.85;1.60;;;;;;;;;;5356091;26;20000;-67
2024/04/13 09:58:08;;;;;;;5.05;1.42;;;;;;;;;;5356443;26;20079;-65
2024/04/13 10:00:34;;;;;;;4.25;1.50;;;;;;;;;;5365500;26;20407;-68
2024/04/13 10:03:00;;;;;;;2.63;1.45;;;;;;;;;;5359764;26;20001;-66
2024/04/13 10:05:27;;;;;;;4.30;1.15;;;;;;;;;;5368558;26;20019;-68
2024/04/13 10:07:54;;;;;;;2.88;1.30;;;;;;;;;;5366729;26;20031;-68
2024/04/13 10:10:20;;;;;;;11.52;2.10;;;;;;;;;;5354360;26;20000;-68
2024/04/13 10:12:45;;;;;;;7.40;1.50;;;;;;;;;;5382410;26;20011;-69
2024/04/13 10:15:11;;;;;;;5.40;1.15;;;;;;;;;;5362167;26;20019;-68
2024/04/13 10:17:39;;;;;;;5.72;2.67;;;;;;;;;;5346364;26;20005;-66
2024/04/13 10:20:05;;;;;;;8.25;2.35;;;;;;;;;;5348718;26;20028;-68
2024/04/13 10:22:33;;;;;;;4.40;1.35;;;;;;;;;;5362494;26;20292;-67
2024/04/13 10:25:06;;;;;;;6.07;1.33;;;;;;;;;;5364704;26;20474;-68
2024/04/13 10:27:32;;;;;;;4.93;1.80;;;;;;;;;;5375322;26;20008;-68
2024/04/13 10:29:59;;;;;;;6.75;1.10;;;;;;;;;;5372204;26;20085;-69
2024/04/13 10:32:24;;;;;;;2.88;1.30;;;;;;;;;;5367030;26;20008;-68
2024/04/13 10:34:51;;;;;;;4.95;1.40;;;;;;;;;;5360341;26;20005;-67
2024/04/13 10:37:26;;;;;;;5.47;1.48;;;;;;;;;;5362387;26;20004;-68
2024/04/13 10:39:51;;;;;;;;;;;;;;;;;;5358683;26;20012;-67
2024/04/13 10:42:17;;;;;;;;;;;;;;;;;;5367199;26;19941;-65
2024/04/13 10:44:42;;;;;;;6.78;1.52;;;;;;;;;;5367447;26;20763;-67
2024/04/13 10:47:07;;;;;;;3.05;1.20;;;;;;;;;;5360200;26;20257;-67
2024/04/13 10:49:33;;;;;;;4.13;1.70;;;;;;;;;;5374697;26;20016;-67
2024/04/13 10:52:00;;;;;;;4.47;1.42;;;;;;;;;;5369991;26;20028;-69
2024/04/13 10:54:25;;;;;;;3.20;1.63;;;;;;;;;;5367353;26;20004;-68
2024/04/13 10:56:50;;;;;;;3.00;1.20;;;;;;;;;;5349212;26;20474;-66
2024/04/13 10:59:17;;;;;;;5.07;1.50;;;;;;;;;;5370082;26;19997;-67
2024/04/13 11:01:43;;;;;;;5.38;1.40;;;;;;;;;;5352590;26;20012;-66
2024/04/13 11:04:10;;;;;;;4.43;1.40;;;;;;;;;;5364125;26;20071;-68
2024/04/13 11:06:37;;;;;;;4.88;1.60;;;;;;;;;;5365366;26;20036;-68
2024/04/13 11:09:04;;;;;;;6.13;1.65;;;;;;;;;;5346464;26;20048;-68
2024/04/13 11:11:30;;;;;;;7.32;1.65;;;;;;;;;;5373069;26;20417;-68
2024/04/13 11:13:56;;;;;;;4.75;1.33;;;;;;;;;;5365925;26;20079;-66
2024/04/13 11:16:21;;;;;;;9.77;1.90;;;;;;;;;;5365285;26;20028;-67
2024/04/13 11:18:46;;;;;;;5.88;1.52;;;;;;;;;;5363014;26;20008;-66
2024/04/13 11:21:12;;;;;;;3.53;1.67;;;;;;;;;;5353009;26;20000;-63
2024/04/13 11:23:38;;;;;;;5.30;1.75;;;;;;;;;;5371660;26;20067;-67
2024/04/13 11:26:03;;;;;;;7.30;1.95;;;;;;;;;;5357589;26;20012;-67
2024/04/13 11:28:29;;;;;;;4.88;1.60;;;;;;;;;;5379884;26;20070;-66
2024/04/13 11:30:54;;;;;;;5.03;1.60;;;;;;;;;;5362044;26;20001;-65
2024/04/13 11:33:20;;;;;;;2.65;1.42;;;;;;;;;;5363396;26;20009;-69
2024/04/13 11:35:59;;;;;;;7.18;1.75;;;;;;;;;;5366078;26;20167;-66
2024/04/13 11:38:37;;;;;;;2.88;1.23;;;;;;;;;;5362621;26;20135;-67
2024/04/13 11:41:02;;;;;;;3.17;1.20;;;;;;;;;;5352669;26;20011;-67
2024/04/13 11:43:27;;;;;;;4.78;1.40;;;;;;;;;;5367067;26;20004;-67
2024/04/13 11:45:54;;;;;;;4.97;1.02;;;;;;;;;;5362502;26;19996;-67
2024/04/13 11:48:19;;;;;;;4.65;1.75;;;;;;;;;;5354694;26;20012;-66
2024/04/13 11:50:48;;;;;;;5.88;1.52;;;;;;;;;;5363826;26;20402;-64
2024/04/13 11:53:14;;;;;;;2.90;1.20;;;;;;;;;;5372366;26;20001;-63
2024/04/13 11:55:39;;;;;;;5.35;1.30;;;;;;;;;;5367643;26;20009;-67
2024/04/13 11:58:04;;;;;;;4.65;1.27;;;;;;;;;;5383969;26;20005;-67
2024/04/13 12:00:30;;;;;;;6.38;1.55;;;;;;;;;;5360973;26;20000;-66
2024/04/13 12:02:56;;;;;;;4.80;1.40;;;;;;;;;;5362078;26;20029;-66
2024/04/13 12:05:21;;;;;;;5.68;1.30;;;;;;;;;;5368736;26;20004;-67
2024/04/13 12:07:47;;;;;;;6.32;1.50;;;;;;;;;;5376426;26;20299;-65
2024/04/13 12:10:12;;;;;;;3.55;1.35;;;;;;;;;;5361676;26;20009;-67
2024/04/13 12:12:38;;;;;;;9.93;1.90;;;;;;;;;;5372610;26;20027;-67
2024/04/13 12:15:03;;;;;;;2.15;1.42;;;;;;;;;;5371063;26;20008;-66
2024/04/13 12:17:31;;;;;;;6.03;2.13;;;;;;;;;;5383922;26;20316;-67
2024/04/13 12:19:57;;;;;;;6.68;2.00;;;;;;;;;;5364760;26;20012;-67
2024/04/13 12:22:23;;;;;;;4.80;1.58;;;;;;;;;;5370929;26;20015;-68
2024/04/13 12:24:48;;;;;;;5.32;1.55;;;;;;;;;;5371113;26;20005;-66
2024/04/13 12:27:14;;;;;;;6.47;2.75;;;;;;;;;;5369799;26;20076;-66
2024/04/13 12:29:40;;;;;;;5.85;1.88;;;;;;;;;;5366470;26;20107;-67
2024/04/13 12:32:05;;;;;;;2.78;1.30;;;;;;;;;;5370923;26;20737;-67
2024/04/13 12:34:31;;;;;;;4.30;1.80;;;;;;;;;;5367325;26;20005;-67
2024/04/13 12:36:56;;;;;;;4.90;1.50;;;;;;;;;;5363126;26;20009;-67
2024/04/13 12:39:22;;;;;;;4.57;1.50;;;;;;;;;;5361260;26;20066;-68
2024/04/13 12:41:47;;;;;;;3.45;1.75;;;;;;;;;;5349637;26;20005;-66
2024/04/13 12:44:13;;;;;;;5.15;1.90;;;;;;;;;;5358446;26;20383;-68
2024/04/13 12:46:38;;;;;;;6.40;2.03;;;;;;;;;;5364931;26;20291;-67
2024/04/13 12:49:04;;;;;;;6.15;2.00;;;;;;;;;;5369766;26;20013;-67
2024/04/13 12:51:30;;;;;;;4.57;1.75;;;;;;;;;;5364633;26;20011;-67
2024/04/13 12:53:55;;;;;;;5.00;1.50;;;;;;;;;;5353242;26;20005;-68
2024/04/13 12:56:21;;;;;;;4.05;1.50;;;;;;;;;;5359651;26;20020;-68
2024/04/13 12:58:46;;;;;;;5.75;2.00;;;;;;;;;;5363645;26;20395;-67
2024/04/13 13:01:12;;;;;;;6.47;2.03;;;;;;;;;;5366554;26;20004;-66
2024/04/13 13:03:37;;;;;;;5.68;2.05;;;;;;;;;;5356844;26;20007;-68
2024/04/13 13:06:03;;;;;;;5.78;2.28;;;;;;;;;;5365298;26;20092;-68
2024/04/13 13:08:29;;;;;;;4.53;1.90;;;;;;;;;;5379225;26;20062;-68
2024/04/13 13:10:55;;;;;;;7.40;2.15;;;;;;;;;;5354759;26;20043;-68
2024/04/13 13:13:20;;;;;;;2.67;2.10;;;;;;;;;;5374172;26;20422;-65
2024/04/13 13:15:46;;;;;;;3.42;1.65;;;;;;;;;;5365742;26;20004;-68
2024/04/13 13:18:12;;;;;;;10.48;1.90;;;;;;;;;;5374451;26;20012;-67
2024/04/13 13:20:37;;;;;;;8.00;1.58;;;;;;;;;;5368188;26;20093;-67
2024/04/13 13:23:03;;;;;;;7.22;2.10;;;;;;;;;;5366899;26;20014;-68
2024/04/13 13:25:28;;;;;;;5.38;1.60;;;;;;;;;;5363124;26;20019;-65
2024/04/13 13:27:55;;;;;;;4.57;1.88;;;;;;;;;;5354243;26;20013;-67
2024/04/13 13:30:21;;;;;;;4.80;1.98;;;;;;;;;;5358942;26;20326;-67
2024/04/13 13:32:47;;;;;;;6.90;2.20;;;;;;;;;;5371398;26;20009;-67
2024/04/13 13:35:12;;;;;;;4.40;1.88;;;;;;;;;;5361180;26;20015;-69
2024/04/13 13:37:38;;;;;;;6.47;1.60;;;;;;;;;;5366091;26;20070;-68
2024/04/13 13:40:04;;;;;;;7.30;1.90;;;;;;;;;;5353068;26;20004;-66
2024/04/13 13:42:30;;;;;;;5.35;2.13;;;;;;;;;;5371773;26;20384;-67
2024/04/13 13:44:55;;;;;;;4.50;1.80;;;;;;;;;;5366340;26;20011;-67
2024/04/13 13:47:20;;;;;;;3.60;1.60;;;;;;;;;;5360358;26;20021;-63
2024/04/13 13:49:46;;;;;;;4.82;1.98;;;;;;;;;;5354800;26;20039;-66
2024/04/13 13:52:11;;;;;;;8.75;1.80;;;;;;;;;;5362693;26;20423;-67
2024/04/13 13:54:36;;;;;;;3.88;1.67;;;;;;;;;;5357173;26;20070;-65
2024/04/13 13:57:02;;;;;;;5.78;2.10;;;;;;;;;;5364429;26;20019;-66
2024/04/13 13:59:27;;;;;;;5.15;2.05;;;;;;;;;;5364483;26;20017;-67
2024/04/13 14:01:53;;;;;;;5.32;1.60;;;;;;;;;;5350387;26;20138;-66
2024/04/13 14:04:18;;;;;;;4.68;1.83;;;;;;;;;;5372748;26;20000;-68
2024/04/13 14:06:43;;;;;;;4.07;1.35;;;;;;;;;;5354999;26;20400;-66
2024/04/13 14:09:09;;;;;;;3.47;1.60;;;;;;;;;;5357596;26;19996;-67
2024/04/13 14:11:34;;;;;;;5.03;1.75;;;;;;;;;;5360050;26;20012;-66
2024/04/13 14:14:00;;;;;;;3.28;1.70;;;;;;;;;;5362067;26;20016;-66
2024/04/13 14:16:25;;;;;;;7.22;1.50;;;;;;;;;;5346526;26;20037;-66
2024/04/13 14:18:51;;;;;;;7.80;1.65;;;;;;;;;;5367770;26;20008;-65
2024/04/13 14:21:16;;;;;;;4.40;1.52;;;;;;;;;;5361454;26;20014;-67
2024/04/13 14:23:42;;;;;;;7.10;2.50;;;;;;;;;;5365960;26;20286;-66
2024/04/13 14:26:08;;;;;;;8.15;3.10;;;;;;;;;;5354832;26;20115;-67
2024/04/13 14:28:33;;;;;;;10.48;2.95;;;;;;;;;;5356284;26;20045;-67
2024/04/13 14:30:59;;;;;;;9.43;2.63;;;;;;;;;;5372302;26;20074;-67
2024/04/13 14:33:24;;;;;;;8.57;2.90;;;;;;;;;;5362120;26;20272;-66
2024/04/13 14:35:51;;;;;;;4.03;2.42;;;;;;;;;;5359588;26;20012;-66